Aeroporto :
LOGIN :

Iscrizione | Disclaimer

   EN    FR    IT 

 










Sommario :    VFR   VFR Marginale   IFR   IFR Intensivo   IFR Molto Intensivo
Visibilità : 
Base nubi : 
>= 8 km
>= 3000ft
5 / 8 km
1000 / 3000 ft
1500m / 5 km
500 / 1000 ft
800 / 1500m
200 / 500 ft
< 800m
< 200 ft
Simboli :   Temporali  Nebbia  Neve Forte  Precipitazioni Forti  Vento > 20 kt
SIGMETs :   Varie  Temporali  Ghiacco  Turbolenza  Onda orograficha  Ceneri Vulcaniche







- Altitudine del aeroporto : 309 ft
- Codice IATA : FNI
- Carte del aeroporto


LFTW - Nîmes Garons

ULTIMO METAR :
  • 251900Z AUTO 19005KT 170V230 CAVOK 27/19 Q1020 NOSIG

METARs OBSOLETI :
  • 251830Z AUTO 19004KT 140V230 CAVOK 28/19 Q1020 NOSIG
  • 251800Z AUTO 20005KT 170V250 CAVOK 30/16 Q1020 TEMPO 18016KT
  • 251730Z AUTO 19006KT 160V230 CAVOK 30/18 Q1020 TEMPO 18016KT
  • 251700Z AUTO 19005KT 150V230 CAVOK 30/16 Q1020 BECMG 18016KT
  • 251630Z AUTO 20009KT 160V240 CAVOK 30/17 Q1019 NOSIG

TAF AMD TAF LFTW
Valido dal 25 a 18 ore il 26 a 15 ore UTC


251837Z 2518/2615 VRB03KT CAVOK
BECMG 2601/2603 02005KT
BECMG 2609/2611 16010KT
Nessun NOTAM noto per questo aeroporto.



MetMap, La meteo Aeronautica in un colpo d'occhio ! - Copyright ORBIFLY Dicembre 2007 - Disclaimer

ORBIFLY MET'MAP TEAM :

Programmazione e sviluppo : Alexandra Zaïnal
Concezione e sviluppo : Baudouin d'Aumeries
Co-Programmazione e sviluppo : Marc-Olivier Méhu
Supporto tecnico e logistico : Manuel Goepfert
Aiuto per la traduzione : Arnaldo La Scala

Contatto : metmap@orbifly.com




FONTI E CREDITI :

   NOAA